createdAt,value
2023-06-12T00:00:03.882Z,980.47
2023-06-12T00:01:04.014Z,980.61
2023-06-12T00:02:03.773Z,980.64
2023-06-12T00:03:03.929Z,980.47
2023-06-12T00:04:03.686Z,980.50
2023-06-12T00:05:03.252Z,980.47
2023-06-12T00:06:03.227Z,980.42
2023-06-12T00:07:03.113Z,980.45
2023-06-12T00:08:03.792Z,980.45
2023-06-12T00:10:03.419Z,980.42
2023-06-12T00:11:03.167Z,980.45
2023-06-12T00:12:04.012Z,980.54
2023-06-12T00:14:03.032Z,980.48
2023-06-12T00:15:03.574Z,980.54
2023-06-12T00:16:03.491Z,980.42
2023-06-12T00:17:03.155Z,980.37
2023-06-12T00:18:03.157Z,980.40
2023-06-12T00:19:02.991Z,980.46
2023-06-12T00:20:03.649Z,980.51
2023-06-12T00:21:03.727Z,980.43
2023-06-12T00:22:03.668Z,980.43
2023-06-12T00:23:03.786Z,980.37
2023-06-12T00:24:03.918Z,980.37
2023-06-12T00:25:03.511Z,980.43
2023-06-12T00:26:03.490Z,980.29
2023-06-12T00:27:03.061Z,980.29
2023-06-12T00:28:03.177Z,980.32
2023-06-12T00:29:03.848Z,980.26
2023-06-12T00:30:03.726Z,980.29
2023-06-12T00:31:03.501Z,980.29
2023-06-12T00:32:03.251Z,980.32
2023-06-12T00:33:04.254Z,980.43
2023-06-12T00:35:03.273Z,980.23
2023-06-12T00:36:02.949Z,980.26
2023-06-12T00:37:03.087Z,980.32
2023-06-12T00:38:03.605Z,980.32
2023-06-12T00:39:03.352Z,980.26
2023-06-12T00:40:03.079Z,980.21
2023-06-12T00:41:04.081Z,980.27
2023-06-12T00:43:03.325Z,980.27
2023-06-12T00:44:03.500Z,980.24
2023-06-12T00:45:03.093Z,980.24
2023-06-12T00:46:03.761Z,980.27
2023-06-12T00:47:03.529Z,980.27
2023-06-12T00:48:03.196Z,980.47
2023-06-12T00:49:03.198Z,980.27
2023-06-12T00:50:03.846Z,980.30
2023-06-12T00:51:03.577Z,980.33
2023-06-12T00:52:03.159Z,980.48
2023-06-12T00:53:03.820Z,980.39
2023-06-12T00:54:03.914Z,980.30
2023-06-12T00:55:03.492Z,980.39
2023-06-12T00:56:03.218Z,980.33
2023-06-12T00:57:03.063Z,980.56
2023-06-12T00:58:03.660Z,980.39
2023-06-12T01:00:02.970Z,980.36
2023-06-12T01:01:03.952Z,980.40
2023-06-12T01:02:03.656Z,980.40
2023-06-12T01:03:04.055Z,980.45
2023-06-12T01:04:03.539Z,980.40
2023-06-12T01:05:03.215Z,980.28
2023-06-12T01:06:03.340Z,980.40
2023-06-12T01:07:03.621Z,980.51
2023-06-12T01:08:03.063Z,980.43
2023-06-12T01:09:03.760Z,980.40
2023-06-12T01:10:03.757Z,980.48
2023-06-12T01:11:03.404Z,980.51
2023-06-12T01:12:03.321Z,980.46
2023-06-12T01:13:04.049Z,980.49
2023-06-12T01:15:03.711Z,980.57
2023-06-12T01:16:03.566Z,980.49
2023-06-12T01:17:03.716Z,980.43
2023-06-12T01:18:03.494Z,980.43
2023-06-12T01:19:03.292Z,980.52
2023-06-12T01:21:03.656Z,980.49
2023-06-12T01:23:03.176Z,980.46
2023-06-12T01:24:03.633Z,980.60
2023-06-12T01:25:03.291Z,980.43
2023-06-12T01:26:03.499Z,980.40
2023-06-12T01:27:03.160Z,980.40
2023-06-12T01:28:03.179Z,980.52
2023-06-12T01:29:03.401Z,980.43
2023-06-12T01:30:03.085Z,980.58
2023-06-12T01:31:03.992Z,980.52
2023-06-12T01:33:03.549Z,980.61
2023-06-12T01:34:03.221Z,980.46
2023-06-12T01:35:03.724Z,980.46
2023-06-12T01:36:03.805Z,980.40
2023-06-12T01:38:03.015Z,980.43
2023-06-12T01:39:03.714Z,980.49
2023-06-12T01:40:03.439Z,980.52
2023-06-12T01:41:03.547Z,980.38
2023-06-12T01:42:03.113Z,980.55
2023-06-12T01:43:03.330Z,980.35
2023-06-12T01:44:03.411Z,980.29
2023-06-12T01:45:02.974Z,980.47
2023-06-12T01:46:03.640Z,980.41
2023-06-12T01:47:03.677Z,980.47
2023-06-12T01:48:03.864Z,980.32
2023-06-12T01:49:03.469Z,980.32
2023-06-12T01:51:03.692Z,980.38
2023-06-12T01:52:03.522Z,980.30
2023-06-12T01:53:03.070Z,980.41
2023-06-12T01:54:03.798Z,980.50
2023-06-12T01:56:03.231Z,980.41
2023-06-12T01:57:03.156Z,980.41
2023-06-12T01:58:03.794Z,980.44
2023-06-12T01:59:03.801Z,980.30
2023-06-12T02:00:03.503Z,980.38
2023-06-12T02:01:03.116Z,980.41
2023-06-12T02:02:03.866Z,980.41
2023-06-12T02:03:03.568Z,980.47
2023-06-12T02:04:03.434Z,980.21
2023-06-12T02:05:03.957Z,980.35
2023-06-12T02:06:02.962Z,980.27
2023-06-12T02:07:03.604Z,980.35
2023-06-12T02:08:03.860Z,980.35
2023-06-12T02:09:02.978Z,980.32
2023-06-12T02:10:03.647Z,980.38
2023-06-12T02:12:03.726Z,980.38
2023-06-12T02:13:03.698Z,980.41
2023-06-12T02:14:03.232Z,980.38
2023-06-12T02:15:03.787Z,980.44
2023-06-12T02:16:03.709Z,980.44
2023-06-12T02:17:03.228Z,980.44
2023-06-12T02:18:04.078Z,980.41
2023-06-12T02:20:03.654Z,980.44
2023-06-12T02:22:03.249Z,980.38
2023-06-12T02:23:03.135Z,980.50
2023-06-12T02:24:03.746Z,980.44
2023-06-12T02:26:03.859Z,980.50
2023-06-12T02:27:03.596Z,980.50
2023-06-12T02:28:03.838Z,980.59
2023-06-12T02:29:02.978Z,980.53
2023-06-12T02:30:02.944Z,980.50
2023-06-12T02:31:03.576Z,980.53
2023-06-12T02:32:03.609Z,980.59
2023-06-12T02:34:03.709Z,980.56
2023-06-12T02:36:02.916Z,980.51
2023-06-12T02:37:03.674Z,980.51
2023-06-12T02:39:02.968Z,980.54
2023-06-12T02:40:03.665Z,980.46
2023-06-12T02:42:03.810Z,980.60
2023-06-12T02:43:03.865Z,980.75
2023-06-12T02:44:03.440Z,980.60
2023-06-12T02:45:03.212Z,980.61
2023-06-12T02:46:04.019Z,980.69
2023-06-12T02:47:03.599Z,980.64
2023-06-12T02:48:03.167Z,980.58
2023-06-12T02:49:03.318Z,980.70
2023-06-12T02:50:03.154Z,980.67
2023-06-12T02:51:02.971Z,980.61
2023-06-12T02:52:03.665Z,980.64
2023-06-12T02:54:03.832Z,980.67
2023-06-12T02:55:03.567Z,980.58
2023-06-12T02:56:03.080Z,980.56
2023-06-12T02:57:03.087Z,980.64
2023-06-12T02:58:03.646Z,980.56
2023-06-12T03:00:03.427Z,980.67
2023-06-12T03:01:03.591Z,980.70
2023-06-12T03:02:03.291Z,980.76
2023-06-12T03:03:03.993Z,980.64
2023-06-12T03:05:03.742Z,980.73
2023-06-12T03:06:03.211Z,980.70
2023-06-12T03:07:03.455Z,980.70
2023-06-12T03:08:03.556Z,980.76
2023-06-12T03:09:03.329Z,980.73
2023-06-12T03:10:03.112Z,980.76
2023-06-12T03:11:03.670Z,980.68
2023-06-12T03:13:03.127Z,980.71
2023-06-12T03:14:03.813Z,980.68
2023-06-12T03:15:03.603Z,980.68
2023-06-12T03:16:04.088Z,980.65
2023-06-12T03:18:03.413Z,980.74
2023-06-12T03:19:03.502Z,980.62
2023-06-12T03:20:03.127Z,980.83
2023-06-12T03:21:03.646Z,980.65
2023-06-12T03:22:03.669Z,980.77
2023-06-12T03:23:03.391Z,980.80
2023-06-12T03:24:03.316Z,980.71
2023-06-12T03:25:03.909Z,980.77
2023-06-12T03:26:03.666Z,980.74
2023-06-12T03:27:03.327Z,980.89
2023-06-12T03:28:03.507Z,980.77
2023-06-12T03:29:03.595Z,980.68
2023-06-12T03:30:03.584Z,980.74
2023-06-12T03:31:03.359Z,980.83
2023-06-12T03:32:03.552Z,980.74
2023-06-12T03:33:03.690Z,980.77
2023-06-12T03:34:03.811Z,980.83
2023-06-12T03:36:02.935Z,980.77
2023-06-12T03:37:03.150Z,980.83
2023-06-12T03:38:04.158Z,980.74
2023-06-12T03:40:03.043Z,980.83
2023-06-12T03:41:03.622Z,980.88
2023-06-12T03:43:03.845Z,980.71
2023-06-12T03:45:03.631Z,980.79
2023-06-12T03:46:03.338Z,980.79
2023-06-12T03:47:03.538Z,980.81
2023-06-12T03:48:04.013Z,980.75
2023-06-12T03:49:03.697Z,980.78
2023-06-12T03:51:03.454Z,980.66
2023-06-12T03:52:03.074Z,980.80
2023-06-12T03:53:03.202Z,980.72
2023-06-12T03:54:03.656Z,980.71
2023-06-12T03:56:03.941Z,980.74
2023-06-12T03:57:03.915Z,980.80
2023-06-12T03:58:03.527Z,980.83
2023-06-12T03:59:08.255Z,980.91
2023-06-12T04:00:03.959Z,980.80
2023-06-12T04:01:03.511Z,980.89
2023-06-12T04:02:03.285Z,980.83
2023-06-12T04:03:04.014Z,980.80
2023-06-12T04:04:03.745Z,980.65
2023-06-12T04:05:03.775Z,980.77
2023-06-12T04:06:03.899Z,980.68
2023-06-12T04:07:04.243Z,980.76
2023-06-12T04:09:03.272Z,980.86
2023-06-12T04:10:04.829Z,980.71
2023-06-12T04:12:03.830Z,980.67
2023-06-12T04:13:03.538Z,980.72
2023-06-12T04:14:03.547Z,980.66
2023-06-12T04:15:03.517Z,980.71
2023-06-12T04:16:03.194Z,980.82
2023-06-12T04:17:03.336Z,980.75
2023-06-12T04:18:03.320Z,980.83
2023-06-12T04:19:03.672Z,980.77
2023-06-12T04:20:03.318Z,980.79
2023-06-12T04:21:02.990Z,980.87
2023-06-12T04:22:03.133Z,980.84
2023-06-12T04:23:03.746Z,980.95
2023-06-12T04:24:03.729Z,980.92
2023-06-12T04:25:04.047Z,980.97
2023-06-12T04:27:03.722Z,980.94
2023-06-12T04:29:03.078Z,980.97
2023-06-12T04:30:03.291Z,980.97
2023-06-12T04:31:08.608Z,981.14
2023-06-12T04:33:04.445Z,981.05
2023-06-12T04:34:08.905Z,981.19
2023-06-12T04:35:03.974Z,981.19
2023-06-12T04:36:03.443Z,981.01
2023-06-12T04:37:03.527Z,981.24
2023-06-12T04:38:03.110Z,981.18
2023-06-12T04:39:03.724Z,981.17
2023-06-12T04:40:03.328Z,981.17
2023-06-12T04:41:03.587Z,981.25
2023-06-12T04:42:03.702Z,981.16
2023-06-12T04:44:03.348Z,981.27
2023-06-12T04:45:03.103Z,981.41
2023-06-12T04:46:03.691Z,981.43
2023-06-12T04:47:03.575Z,981.43
2023-06-12T04:49:03.393Z,981.45
2023-06-12T04:50:03.627Z,981.39
2023-06-12T04:51:03.195Z,981.36
2023-06-12T04:52:03.046Z,981.38
2023-06-12T04:53:03.560Z,981.41
2023-06-12T04:54:06.577Z,981.41
2023-06-12T04:55:03.985Z,981.55
2023-06-12T04:56:03.568Z,981.52
2023-06-12T04:58:03.894Z,981.51
2023-06-12T04:59:04.020Z,981.56
2023-06-12T05:00:03.560Z,981.56
2023-06-12T05:01:03.699Z,981.61
2023-06-12T05:02:03.293Z,981.58
2023-06-12T05:03:04.187Z,981.70
2023-06-12T05:04:03.772Z,981.63
2023-06-12T05:05:03.493Z,981.57
2023-06-12T05:06:03.730Z,981.57
2023-06-12T05:07:03.309Z,981.57
2023-06-12T05:08:03.029Z,981.75
2023-06-12T05:09:03.668Z,981.77
2023-06-12T05:10:03.552Z,981.68
2023-06-12T05:11:03.076Z,981.68
2023-06-12T05:12:03.777Z,981.68
2023-06-12T05:13:03.861Z,981.62
2023-06-12T05:15:03.614Z,981.79
2023-06-12T05:16:03.848Z,981.79
2023-06-12T05:17:03.732Z,981.79
2023-06-12T05:18:03.666Z,981.93
2023-06-12T05:20:03.083Z,981.84
2023-06-12T05:21:03.135Z,981.87
2023-06-12T05:22:03.875Z,981.90
2023-06-12T05:24:03.186Z,981.93
2023-06-12T05:25:03.956Z,981.78
2023-06-12T05:26:03.666Z,981.90
2023-06-12T05:27:03.734Z,981.89
2023-06-12T05:29:03.469Z,981.86
2023-06-12T05:30:03.541Z,981.98
2023-06-12T05:31:03.405Z,982.06
2023-06-12T05:32:03.366Z,982.09
2023-06-12T05:33:03.162Z,981.95
2023-06-12T05:34:03.916Z,982.00
2023-06-12T05:36:03.229Z,981.97
2023-06-12T05:37:03.111Z,981.91
2023-06-12T05:38:03.125Z,982.03
2023-06-12T05:39:06.237Z,982.08
2023-06-12T05:40:03.386Z,982.02
2023-06-12T05:41:03.965Z,981.76
2023-06-12T05:42:03.195Z,981.96
2023-06-12T05:43:03.903Z,982.02
2023-06-12T05:44:08.917Z,981.99
2023-06-12T05:46:03.410Z,982.04
2023-06-12T05:47:04.044Z,982.01
2023-06-12T05:48:04.071Z,982.06
2023-06-12T05:49:03.540Z,982.00
2023-06-12T05:50:03.720Z,981.97
2023-06-12T05:51:08.883Z,981.97
2023-06-12T05:53:03.380Z,981.99
2023-06-12T05:54:04.038Z,982.08
2023-06-12T05:55:09.854Z,982.11
2023-06-12T05:56:06.265Z,981.99
2023-06-12T05:57:03.905Z,981.93
2023-06-12T05:58:07.404Z,982.04
2023-06-12T05:59:03.620Z,982.10
2023-06-12T06:00:03.601Z,982.19
2023-06-12T06:01:03.632Z,982.22
2023-06-12T06:02:03.369Z,982.30
2023-06-12T06:03:04.471Z,982.27
2023-06-12T06:05:03.480Z,982.27
2023-06-12T06:06:04.105Z,982.21
2023-06-12T06:07:18.428Z,982.26
2023-06-12T06:09:03.226Z,982.20
2023-06-12T06:10:03.509Z,982.26
2023-06-12T06:11:03.165Z,982.16
2023-06-12T06:12:03.865Z,982.10
2023-06-12T06:14:03.294Z,982.13
2023-06-12T06:15:03.806Z,982.24
2023-06-12T06:16:03.710Z,982.27
2023-06-12T06:17:03.603Z,982.27
2023-06-12T06:19:03.316Z,982.26
2023-06-12T06:20:03.086Z,982.29
2023-06-12T06:21:03.644Z,982.44
2023-06-12T06:22:03.882Z,982.41
2023-06-12T06:24:03.801Z,982.38
2023-06-12T06:25:03.372Z,982.49
2023-06-12T06:26:03.043Z,982.46
2023-06-12T06:27:03.858Z,982.55
2023-06-12T06:28:03.850Z,982.55
2023-06-12T06:29:15.126Z,982.49
2023-06-12T06:30:03.600Z,982.49
2023-06-12T06:31:03.678Z,982.55
2023-06-12T06:32:03.372Z,982.46
2023-06-12T06:33:03.338Z,982.55
2023-06-12T06:34:03.582Z,982.58
2023-06-12T06:35:03.543Z,982.46
2023-06-12T06:37:03.819Z,982.66
2023-06-12T06:38:03.528Z,982.66
2023-06-12T06:39:03.082Z,982.54
2023-06-12T06:40:03.914Z,982.56
2023-06-12T06:42:03.597Z,982.71
2023-06-12T06:44:03.363Z,982.74
2023-06-12T06:45:08.185Z,982.62
2023-06-12T06:46:06.572Z,982.68
2023-06-12T06:47:03.455Z,982.74
2023-06-12T06:48:03.237Z,982.71
2023-06-12T06:49:03.345Z,982.71
2023-06-12T06:50:03.081Z,982.65
2023-06-12T06:51:03.646Z,982.71
2023-06-12T06:52:03.404Z,982.82
2023-06-12T06:53:03.537Z,982.62
2023-06-12T06:54:03.586Z,982.67
2023-06-12T06:55:03.634Z,982.61
2023-06-12T06:56:03.309Z,982.70
2023-06-12T06:57:03.051Z,982.78
2023-06-12T06:58:03.771Z,982.78
2023-06-12T06:59:03.843Z,982.81
2023-06-12T07:00:03.379Z,982.90
2023-06-12T07:01:03.220Z,982.90
2023-06-12T07:02:03.984Z,982.93
2023-06-12T07:03:03.701Z,983.02
2023-06-12T07:04:03.996Z,982.99
2023-06-12T07:06:03.311Z,983.17
2023-06-12T07:07:02.941Z,983.08
2023-06-12T07:08:03.745Z,983.20
2023-06-12T07:09:03.931Z,982.94
2023-06-12T07:10:03.558Z,983.03
2023-06-12T07:11:03.221Z,983.00
2023-06-12T07:12:03.860Z,983.00
2023-06-12T07:14:03.094Z,983.09
2023-06-12T07:15:03.851Z,983.06
2023-06-12T07:17:03.139Z,983.06
2023-06-12T07:18:03.991Z,983.06
2023-06-12T07:19:03.805Z,983.03
2023-06-12T07:20:03.361Z,983.05
2023-06-12T07:21:03.172Z,983.00
2023-06-12T07:22:03.025Z,982.99
2023-06-12T07:23:03.780Z,983.05
2023-06-12T07:24:03.485Z,983.02
2023-06-12T07:25:03.281Z,982.99
2023-06-12T07:26:28.417Z,982.96
2023-06-12T07:27:03.663Z,982.93
2023-06-12T07:28:04.447Z,982.96
2023-06-12T07:30:03.071Z,982.96
2023-06-12T07:31:04.048Z,983.02
2023-06-12T07:32:03.159Z,982.90
2023-06-12T07:33:03.397Z,983.10
2023-06-12T07:34:08.046Z,983.04
2023-06-12T07:35:03.518Z,982.95
2023-06-12T07:36:02.981Z,982.92
2023-06-12T07:37:03.826Z,982.98
2023-06-12T07:38:03.899Z,982.92
2023-06-12T07:39:03.041Z,983.10
2023-06-12T07:40:04.030Z,983.01
2023-06-12T07:41:03.696Z,983.03
2023-06-12T07:42:03.241Z,983.00
2023-06-12T07:43:03.721Z,983.00
2023-06-12T07:44:03.341Z,982.89
2023-06-12T07:45:03.956Z,983.06
2023-06-12T07:46:03.746Z,983.00
2023-06-12T07:47:08.378Z,983.03
2023-06-12T07:49:03.583Z,982.98
2023-06-12T07:50:03.440Z,983.03
2023-06-12T07:52:03.093Z,983.04
2023-06-12T07:53:04.037Z,983.18
2023-06-12T07:55:03.095Z,983.18
2023-06-12T07:56:03.698Z,983.07
2023-06-12T07:57:03.870Z,983.19
2023-06-12T07:59:03.164Z,983.19
2023-06-12T08:00:05.094Z,983.22
2023-06-12T08:01:03.031Z,983.10
2023-06-12T08:02:03.124Z,983.16
2023-06-12T08:04:04.111Z,983.19
2023-06-12T08:05:03.004Z,983.22
2023-06-12T08:06:05.671Z,983.31
2023-06-12T08:07:04.081Z,983.25
2023-06-12T08:08:03.470Z,983.36
2023-06-12T08:10:03.940Z,983.39
2023-06-12T08:12:03.040Z,983.48
2023-06-12T08:13:03.906Z,983.51
2023-06-12T08:14:03.881Z,983.57
2023-06-12T08:15:03.547Z,983.48
2023-06-12T08:16:03.528Z,983.42
2023-06-12T08:17:03.620Z,983.42
2023-06-12T08:18:03.327Z,983.45
2023-06-12T08:19:03.422Z,983.34
2023-06-12T08:20:02.936Z,983.22
2023-06-12T08:21:03.648Z,983.36
2023-06-12T08:22:03.915Z,983.39
2023-06-12T08:23:03.494Z,983.22
2023-06-12T08:24:03.762Z,983.57
2023-06-12T08:25:03.293Z,983.45
2023-06-12T08:26:03.625Z,983.36
2023-06-12T08:27:03.184Z,983.34
2023-06-12T08:28:02.982Z,983.39
2023-06-12T08:29:03.691Z,983.71
2023-06-12T08:30:03.827Z,983.63
2023-06-12T08:31:03.712Z,983.51
2023-06-12T08:32:03.797Z,983.36
2023-06-12T08:33:04.304Z,983.34
2023-06-12T08:35:03.359Z,983.45
2023-06-12T08:36:03.951Z,983.42
2023-06-12T08:38:03.251Z,983.45
2023-06-12T08:39:03.764Z,983.36
2023-06-12T08:40:03.854Z,983.34
2023-06-12T08:41:03.696Z,983.47
2023-06-12T08:42:03.675Z,983.34
2023-06-12T08:43:03.662Z,983.47
2023-06-12T08:44:03.703Z,983.41
2023-06-12T08:45:21.860Z,983.62
2023-06-12T08:46:03.812Z,983.41
2023-06-12T08:47:03.308Z,983.56
2023-06-12T08:48:03.128Z,983.47
2023-06-12T08:49:03.314Z,983.56
2023-06-12T08:50:02.922Z,983.65
2023-06-12T08:51:03.074Z,983.56
2023-06-12T08:52:03.315Z,983.44
2023-06-12T08:53:03.840Z,983.53
2023-06-12T08:55:03.211Z,983.62
2023-06-12T08:56:03.884Z,983.50
2023-06-12T08:57:03.709Z,983.65
2023-06-12T08:58:08.704Z,983.50
2023-06-12T08:59:03.998Z,983.65
2023-06-12T09:00:03.566Z,983.62
2023-06-12T09:01:03.755Z,983.80
2023-06-12T09:02:14.397Z,983.50
2023-06-12T09:03:03.962Z,983.83
2023-06-12T09:04:03.569Z,983.74
2023-06-12T09:05:03.630Z,983.74
2023-06-12T09:06:03.625Z,983.89
2023-06-12T09:07:03.454Z,983.77
2023-06-12T09:09:03.742Z,983.63
2023-06-12T09:10:15.500Z,983.63
2023-06-12T09:11:03.607Z,983.72
2023-06-12T09:12:03.723Z,983.81
2023-06-12T09:13:03.299Z,983.78
2023-06-12T09:14:02.987Z,983.78
2023-06-12T09:15:03.630Z,983.87
2023-06-12T09:16:03.338Z,983.76
2023-06-12T09:17:03.077Z,983.49
2023-06-12T09:18:03.525Z,983.58
2023-06-12T09:19:03.260Z,983.81
2023-06-12T09:20:03.088Z,983.81
2023-06-12T09:21:03.814Z,983.72
2023-06-12T09:22:03.638Z,983.58
2023-06-12T09:23:03.167Z,983.52
2023-06-12T09:24:03.902Z,983.57
2023-06-12T09:25:03.615Z,983.57
2023-06-12T09:26:16.333Z,983.60
2023-06-12T09:27:03.556Z,983.62
2023-06-12T09:28:03.123Z,983.62
2023-06-12T09:29:03.515Z,983.62
2023-06-12T09:30:03.318Z,983.59
2023-06-12T09:31:03.063Z,983.62
2023-06-12T09:32:04.082Z,983.57
2023-06-12T09:33:03.894Z,983.54
2023-06-12T09:34:03.916Z,983.60
2023-06-12T09:35:03.737Z,983.48
2023-06-12T09:36:03.278Z,983.57
2023-06-12T09:37:02.916Z,983.51
2023-06-12T09:38:03.122Z,983.51
2023-06-12T09:39:03.818Z,983.57
2023-06-12T09:40:03.537Z,983.77
2023-06-12T09:41:03.189Z,983.63
2023-06-12T09:42:03.928Z,983.63
2023-06-12T09:44:03.640Z,983.48
2023-06-12T09:45:03.185Z,983.66
2023-06-12T09:46:04.085Z,983.66
2023-06-12T09:47:03.842Z,983.63
2023-06-12T09:48:03.880Z,983.57
2023-06-12T09:49:03.639Z,983.49
2023-06-12T09:50:03.180Z,983.43
2023-06-12T09:51:03.726Z,983.46
2023-06-12T09:52:03.877Z,983.55
2023-06-12T09:53:03.437Z,983.49
2023-06-12T09:54:03.222Z,983.43
2023-06-12T09:55:03.909Z,983.46
2023-06-12T09:57:03.731Z,983.43
2023-06-12T09:58:03.342Z,983.43
2023-06-12T09:59:03.093Z,983.37
2023-06-12T10:00:03.173Z,983.32
2023-06-12T10:01:03.800Z,983.26
2023-06-12T10:03:03.651Z,983.35
2023-06-12T10:04:03.319Z,983.23
2023-06-12T10:05:02.946Z,983.32
2023-06-12T10:06:03.752Z,983.08
2023-06-12T10:08:03.309Z,983.14
2023-06-12T10:09:03.323Z,983.29
2023-06-12T10:10:03.315Z,983.23
2023-06-12T10:11:03.876Z,983.37
2023-06-12T10:13:03.646Z,983.29
2023-06-12T10:14:03.795Z,983.23
2023-06-12T10:15:04.088Z,983.20
2023-06-12T10:17:03.648Z,983.17
2023-06-12T10:18:03.728Z,983.11
2023-06-12T10:19:03.400Z,983.17
2023-06-12T10:20:03.220Z,983.05
2023-06-12T10:21:03.317Z,983.22
2023-06-12T10:22:08.247Z,983.10
2023-06-12T10:23:03.110Z,983.10
2023-06-12T10:24:04.016Z,983.10
2023-06-12T10:25:03.523Z,983.16
2023-06-12T10:27:03.795Z,983.31
2023-06-12T10:29:03.480Z,983.25
2023-06-12T10:30:03.022Z,983.31
2023-06-12T10:31:03.985Z,983.39
2023-06-12T10:33:04.023Z,983.17
2023-06-12T10:34:04.071Z,983.34
2023-06-12T10:35:03.581Z,983.23
2023-06-12T10:36:03.585Z,983.31
2023-06-12T10:37:03.251Z,983.29
2023-06-12T10:38:03.334Z,983.26
2023-06-12T10:39:03.354Z,983.23
2023-06-12T10:40:03.248Z,983.29
2023-06-12T10:41:03.150Z,983.31
2023-06-12T10:42:03.726Z,983.34
2023-06-12T10:43:03.867Z,983.42
2023-06-12T10:45:03.728Z,983.51
2023-06-12T10:46:03.989Z,983.32
2023-06-12T10:47:03.847Z,983.34
2023-06-12T10:48:03.524Z,983.34
2023-06-12T10:49:03.809Z,983.54
2023-06-12T10:51:03.684Z,983.20
2023-06-12T10:52:03.832Z,983.17
2023-06-12T10:53:03.652Z,983.23
2023-06-12T10:55:03.363Z,983.14
2023-06-12T10:56:03.293Z,983.11
2023-06-12T10:57:03.184Z,983.22
2023-06-12T10:58:03.302Z,983.25
2023-06-12T10:59:03.011Z,983.31
2023-06-12T11:00:03.044Z,983.22
2023-06-12T11:01:03.158Z,983.22
2023-06-12T11:02:03.557Z,983.13
2023-06-12T11:03:03.516Z,983.13
2023-06-12T11:04:04.073Z,983.16
2023-06-12T11:05:04.033Z,983.22
2023-06-12T11:07:03.040Z,982.95
2023-06-12T11:08:03.904Z,983.16
2023-06-12T11:09:03.887Z,983.01
2023-06-12T11:10:03.732Z,983.10
2023-06-12T11:11:03.384Z,983.19
2023-06-12T11:13:03.637Z,983.22
2023-06-12T11:14:03.426Z,983.13
2023-06-12T11:15:03.237Z,983.10
2023-06-12T11:16:03.907Z,983.14
2023-06-12T11:17:03.941Z,983.17
2023-06-12T11:18:03.857Z,983.08
2023-06-12T11:20:03.610Z,983.10
2023-06-12T11:22:03.523Z,983.13
2023-06-12T11:23:03.385Z,983.04
2023-06-12T11:24:03.400Z,983.07
2023-06-12T11:25:03.747Z,983.02
2023-06-12T11:26:03.818Z,983.07
2023-06-12T11:27:03.876Z,983.16
2023-06-12T11:28:03.464Z,983.02
2023-06-12T11:29:03.544Z,983.02
2023-06-12T11:30:22.949Z,982.87
2023-06-12T11:32:03.309Z,983.10
2023-06-12T11:33:03.041Z,982.96
2023-06-12T11:34:04.097Z,983.02
2023-06-12T11:36:03.690Z,983.05
2023-06-12T11:37:04.029Z,982.96
2023-06-12T11:40:03.746Z,982.96
2023-06-12T11:41:03.471Z,982.87
2023-06-12T11:42:03.138Z,982.84
2023-06-12T11:43:03.976Z,982.78
2023-06-12T11:45:02.957Z,983.02
2023-06-12T11:46:04.031Z,982.99
2023-06-12T11:51:03.904Z,982.99
2023-06-12T11:52:03.501Z,982.99
2023-06-12T11:53:03.187Z,982.81
2023-06-12T11:54:02.921Z,982.90
2023-06-12T11:57:04.981Z,982.87
2023-06-12T11:58:03.119Z,982.98
2023-06-12T11:59:03.876Z,982.86
2023-06-12T12:00:03.590Z,982.80
2023-06-12T12:01:03.231Z,982.92
2023-06-12T12:02:03.072Z,982.66
2023-06-12T12:03:03.538Z,982.72
2023-06-12T12:04:03.217Z,982.69
2023-06-12T12:05:03.994Z,982.69
2023-06-12T12:07:03.655Z,982.72
2023-06-12T12:09:03.181Z,982.63
2023-06-12T12:10:03.728Z,982.80
2023-06-12T12:11:03.890Z,982.92
2023-06-12T12:12:03.624Z,982.72
2023-06-12T12:13:03.817Z,982.75
2023-06-12T12:14:03.932Z,982.80
2023-06-12T12:15:03.911Z,982.72
2023-06-12T12:16:03.321Z,982.75
2023-06-12T12:17:04.028Z,982.58
2023-06-12T12:19:03.013Z,982.61
2023-06-12T12:20:03.908Z,982.58
2023-06-12T12:22:03.268Z,982.66
2023-06-12T12:23:03.723Z,982.61
2023-06-12T12:24:03.400Z,982.58
2023-06-12T12:25:03.793Z,982.80
2023-06-12T12:26:03.378Z,982.61
2023-06-12T12:28:03.695Z,982.70
2023-06-12T12:29:03.911Z,982.61
2023-06-12T12:30:03.609Z,982.61
2023-06-12T12:32:03.147Z,982.46
2023-06-12T12:33:03.303Z,982.46
2023-06-12T12:34:03.722Z,982.49
2023-06-12T12:35:03.877Z,982.31
2023-06-12T12:36:03.979Z,982.43
2023-06-12T12:38:03.629Z,982.40
2023-06-12T12:40:04.031Z,982.52
2023-06-12T12:41:03.998Z,982.37
2023-06-12T12:42:03.572Z,982.37
2023-06-12T12:43:03.283Z,982.49
2023-06-12T12:44:03.853Z,982.31
2023-06-12T12:45:03.953Z,982.43
2023-06-12T12:46:03.594Z,982.37
2023-06-12T12:47:03.336Z,982.28
2023-06-12T12:48:08.437Z,982.28
2023-06-12T12:49:03.460Z,982.34
2023-06-12T12:50:22.062Z,982.34
2023-06-12T12:52:03.624Z,982.34
2023-06-12T12:53:03.396Z,982.28
2023-06-12T12:54:03.183Z,982.34
2023-06-12T12:55:03.867Z,982.37
2023-06-12T12:56:04.106Z,982.25
2023-06-12T12:57:03.660Z,982.31
2023-06-12T12:58:18.083Z,982.30
2023-06-12T12:59:03.794Z,982.25
2023-06-12T13:00:03.781Z,982.22
2023-06-12T13:01:03.588Z,982.27
2023-06-12T13:02:03.532Z,982.21
2023-06-12T13:03:03.976Z,982.22
2023-06-12T13:05:03.839Z,982.19
2023-06-12T13:07:03.217Z,982.19
2023-06-12T13:08:03.716Z,982.33
2023-06-12T13:09:03.513Z,982.16
2023-06-12T13:10:03.608Z,982.04
2023-06-12T13:11:03.319Z,982.25
2023-06-12T13:12:03.052Z,982.16
2023-06-12T13:13:03.573Z,982.16
2023-06-12T13:14:03.412Z,982.22
2023-06-12T13:16:03.712Z,982.21
2023-06-12T13:17:03.546Z,982.07
2023-06-12T13:18:03.873Z,982.07
2023-06-12T13:19:03.846Z,982.04
2023-06-12T13:20:03.527Z,982.03
2023-06-12T13:21:03.420Z,981.97
2023-06-12T13:22:03.056Z,981.97
2023-06-12T13:23:03.588Z,981.82
2023-06-12T13:24:03.487Z,982.06
2023-06-12T13:25:03.121Z,981.91
2023-06-12T13:26:03.224Z,982.03
2023-06-12T13:27:03.947Z,982.11
2023-06-12T13:28:03.725Z,982.14
2023-06-12T13:29:03.555Z,981.97
2023-06-12T13:30:03.442Z,981.91
2023-06-12T13:31:03.214Z,981.97
2023-06-12T13:32:03.521Z,982.00
2023-06-12T13:33:03.178Z,981.97
2023-06-12T13:34:03.433Z,981.76
2023-06-12T13:35:03.119Z,981.91
2023-06-12T13:36:03.938Z,981.97
2023-06-12T13:38:03.311Z,981.86
2023-06-12T13:39:04.104Z,981.86
2023-06-12T13:40:03.723Z,982.03
2023-06-12T13:41:03.781Z,981.80
2023-06-12T13:42:03.474Z,981.86
2023-06-12T13:43:03.651Z,981.86
2023-06-12T13:44:03.157Z,981.98
2023-06-12T13:45:04.051Z,981.89
2023-06-12T13:46:03.728Z,981.92
2023-06-12T13:48:04.340Z,981.80
2023-06-12T13:50:03.690Z,981.74
2023-06-12T13:51:03.555Z,981.74
2023-06-12T13:52:03.484Z,981.80
2023-06-12T13:53:03.077Z,981.86
2023-06-12T13:54:03.157Z,981.80
2023-06-12T13:55:03.202Z,981.89
2023-06-12T13:56:03.885Z,981.92
2023-06-12T13:57:04.536Z,981.98
2023-06-12T13:58:03.785Z,981.95
2023-06-12T14:00:03.125Z,981.92
2023-06-12T14:01:03.900Z,981.89
2023-06-12T14:02:03.836Z,981.83
2023-06-12T14:03:03.725Z,981.92
2023-06-12T14:04:03.583Z,981.75
2023-06-12T14:05:09.793Z,981.98
2023-06-12T14:07:04.342Z,981.84
2023-06-12T14:08:03.868Z,981.81
2023-06-12T14:10:03.614Z,981.72
2023-06-12T14:12:03.015Z,981.87
2023-06-12T14:13:03.894Z,981.78
2023-06-12T14:14:03.596Z,981.69
2023-06-12T14:15:03.742Z,981.69
2023-06-12T14:16:03.554Z,981.78
2023-06-12T14:17:03.888Z,981.72
2023-06-12T14:18:03.559Z,981.75
2023-06-12T14:19:03.315Z,981.75
2023-06-12T14:20:03.803Z,981.57
2023-06-12T14:21:03.524Z,981.69
2023-06-12T14:22:03.652Z,981.78
2023-06-12T14:23:03.217Z,981.60